createdAt,value
2018-12-26T00:00:05.286Z,20.30
2018-12-26T00:02:34.506Z,20.30
2018-12-26T00:05:03.819Z,20.30
2018-12-26T00:07:33.070Z,20.30
2018-12-26T00:10:02.268Z,20.40
2018-12-26T00:12:31.514Z,20.30
2018-12-26T00:15:00.746Z,20.30
2018-12-26T00:17:29.997Z,20.40
2018-12-26T00:19:59.325Z,20.40
2018-12-26T00:22:28.538Z,20.40
2018-12-26T00:24:57.757Z,20.40
2018-12-26T00:27:26.955Z,20.40
2018-12-26T00:29:56.183Z,20.40
2018-12-26T00:32:44.874Z,20.40
2018-12-26T00:35:14.167Z,20.40
2018-12-26T00:37:43.369Z,20.40
2018-12-26T00:40:12.652Z,20.40
2018-12-26T00:42:41.855Z,20.40
2018-12-26T00:45:11.114Z,20.40
2018-12-26T00:47:40.390Z,20.40
2018-12-26T00:50:09.568Z,20.40
2018-12-26T00:52:38.782Z,20.40
2018-12-26T00:55:08.003Z,20.40
2018-12-26T00:57:38.838Z,20.40
2018-12-26T01:00:08.591Z,20.40
2018-12-26T01:02:37.798Z,20.40
2018-12-26T01:05:07.036Z,20.40
2018-12-26T01:07:36.368Z,20.40
2018-12-26T01:10:05.811Z,20.40
2018-12-26T01:12:35.054Z,20.40
2018-12-26T01:15:04.277Z,20.30
2018-12-26T01:17:33.499Z,20.30
2018-12-26T01:20:02.734Z,20.30
2018-12-26T01:22:34.178Z,20.30
2018-12-26T01:25:03.385Z,20.30
2018-12-26T01:27:32.619Z,20.30
2018-12-26T01:30:01.939Z,20.30
2018-12-26T01:32:31.190Z,20.30
2018-12-26T01:35:00.481Z,20.30
2018-12-26T01:37:29.688Z,20.30
2018-12-26T01:39:58.908Z,20.30
2018-12-26T01:42:28.127Z,20.30
2018-12-26T01:44:57.398Z,20.30
2018-12-26T01:47:26.588Z,20.30
2018-12-26T01:49:55.817Z,20.30
2018-12-26T01:52:24.973Z,20.50
2018-12-26T01:54:54.242Z,20.60
2018-12-26T01:57:23.378Z,20.60
2018-12-26T01:59:52.593Z,20.70
2018-12-26T02:02:21.810Z,20.70
2018-12-26T02:04:50.948Z,20.70
2018-12-26T02:07:20.199Z,20.70
2018-12-26T02:09:49.699Z,20.70
2018-12-26T02:12:18.924Z,20.60
2018-12-26T02:14:48.170Z,20.60
2018-12-26T02:17:17.465Z,20.50
2018-12-26T02:19:46.649Z,20.50
2018-12-26T02:22:16.091Z,20.50
2018-12-26T02:24:45.393Z,20.50
2018-12-26T02:27:14.609Z,20.50
2018-12-26T02:29:43.803Z,20.40
2018-12-26T02:32:13.029Z,20.40
2018-12-26T02:34:42.270Z,20.40
2018-12-26T02:37:11.472Z,20.40
2018-12-26T02:39:40.715Z,20.40
2018-12-26T02:42:09.903Z,20.40
2018-12-26T02:44:39.117Z,20.40
2018-12-26T02:47:08.331Z,20.30
2018-12-26T02:49:37.591Z,20.30
2018-12-26T02:52:07.218Z,20.30
2018-12-26T02:54:36.427Z,20.30
2018-12-26T02:57:05.679Z,20.30
2018-12-26T02:59:34.951Z,20.30
2018-12-26T03:02:04.254Z,20.30
2018-12-26T03:04:33.475Z,20.30
2018-12-26T03:07:02.667Z,20.30
2018-12-26T03:09:31.907Z,20.30
2018-12-26T03:12:01.133Z,20.30
2018-12-26T03:14:30.312Z,20.30
2018-12-26T03:16:59.554Z,20.30
2018-12-26T03:19:28.790Z,20.30
2018-12-26T03:21:58.001Z,20.30
2018-12-26T03:24:27.201Z,20.30
2018-12-26T03:26:56.763Z,20.30
2018-12-26T03:29:26.116Z,20.30
2018-12-26T03:31:55.338Z,20.30
2018-12-26T03:34:24.538Z,20.30
2018-12-26T03:36:53.698Z,20.30
2018-12-26T03:39:22.926Z,20.30
2018-12-26T03:41:52.104Z,20.30
2018-12-26T03:44:21.244Z,20.30
2018-12-26T03:46:50.646Z,20.30
2018-12-26T03:49:19.854Z,20.30
2018-12-26T03:51:49.066Z,20.30
2018-12-26T03:54:18.234Z,20.30
2018-12-26T03:56:47.467Z,20.20
2018-12-26T03:59:16.723Z,20.20
2018-12-26T04:01:45.918Z,20.20
2018-12-26T04:04:15.069Z,20.30
2018-12-26T04:06:44.620Z,20.20
2018-12-26T04:09:13.856Z,20.20
2018-12-26T04:11:43.065Z,20.20
2018-12-26T04:14:12.271Z,20.20
2018-12-26T04:16:41.489Z,20.20
2018-12-26T04:19:10.676Z,20.20
2018-12-26T04:21:39.911Z,20.20
2018-12-26T04:24:09.134Z,20.20
2018-12-26T04:26:38.349Z,20.20
2018-12-26T04:29:07.493Z,20.20
2018-12-26T04:31:36.640Z,20.10
2018-12-26T04:34:05.893Z,20.10
2018-12-26T04:36:35.111Z,20.10
2018-12-26T04:39:05.743Z,20.10
2018-12-26T04:41:34.953Z,20.20
2018-12-26T04:44:04.150Z,20.20
2018-12-26T04:46:33.358Z,20.20
2018-12-26T04:49:02.602Z,20.20
2018-12-26T04:51:31.811Z,20.20
2018-12-26T04:54:00.969Z,20.20
2018-12-26T04:56:30.151Z,20.20
2018-12-26T04:58:59.435Z,20.20
2018-12-26T05:01:28.669Z,20.20
2018-12-26T05:03:57.878Z,20.20
2018-12-26T05:06:27.416Z,20.20
2018-12-26T05:08:56.616Z,20.20
2018-12-26T05:11:26.166Z,20.20
2018-12-26T05:13:55.442Z,20.20
2018-12-26T05:16:24.605Z,20.20
2018-12-26T05:18:53.715Z,20.20
2018-12-26T05:21:22.954Z,20.20
2018-12-26T05:23:52.423Z,20.20
2018-12-26T05:26:21.641Z,20.20
2018-12-26T05:28:50.905Z,20.20
2018-12-26T05:31:20.111Z,20.20
2018-12-26T05:33:49.312Z,20.20
2018-12-26T05:36:18.561Z,20.20
2018-12-26T05:38:47.802Z,20.20
2018-12-26T05:41:17.069Z,20.20
2018-12-26T05:43:46.277Z,20.20
2018-12-26T05:46:15.426Z,20.20
2018-12-26T05:48:44.689Z,20.20
2018-12-26T05:51:14.041Z,20.20
2018-12-26T05:53:43.263Z,20.20
2018-12-26T05:56:12.473Z,20.20
2018-12-26T05:58:41.618Z,20.20
2018-12-26T06:01:10.854Z,20.20
2018-12-26T06:03:40.080Z,20.20
2018-12-26T06:06:09.277Z,20.20
2018-12-26T06:08:38.489Z,20.20
2018-12-26T06:11:07.727Z,20.20
2018-12-26T06:13:37.265Z,20.20
2018-12-26T06:16:06.434Z,20.20
2018-12-26T06:18:36.004Z,20.10
2018-12-26T06:21:05.263Z,20.00
2018-12-26T06:23:34.778Z,19.90
2018-12-26T06:26:03.922Z,19.90
2018-12-26T06:28:33.129Z,19.80
2018-12-26T06:31:02.329Z,19.70
2018-12-26T06:33:31.585Z,19.60
2018-12-26T06:36:00.766Z,19.50
2018-12-26T06:38:29.974Z,19.50
2018-12-26T06:40:59.214Z,19.50
2018-12-26T06:43:28.402Z,19.50
2018-12-26T06:45:57.634Z,19.50
2018-12-26T06:48:26.837Z,19.40
2018-12-26T06:50:56.058Z,19.40
2018-12-26T06:53:25.233Z,19.40
2018-12-26T06:55:54.433Z,19.30
2018-12-26T06:58:23.570Z,19.30
2018-12-26T07:00:52.728Z,19.30
2018-12-26T07:03:21.950Z,19.30
2018-12-26T07:05:51.161Z,19.20
2018-12-26T07:08:20.560Z,19.20
2018-12-26T07:10:49.795Z,19.20
2018-12-26T07:13:19.021Z,19.20
2018-12-26T07:15:48.210Z,19.30
2018-12-26T07:18:17.446Z,19.40
2018-12-26T07:20:46.645Z,19.50
2018-12-26T07:23:15.842Z,19.60
2018-12-26T07:25:45.114Z,19.70
2018-12-26T07:28:14.313Z,19.80
2018-12-26T07:30:43.494Z,19.80
2018-12-26T07:33:12.737Z,19.90
2018-12-26T07:35:41.914Z,20.00
2018-12-26T07:38:11.126Z,20.00
2018-12-26T07:40:40.287Z,20.10
2018-12-26T07:43:09.481Z,20.10
2018-12-26T07:45:38.737Z,20.10
2018-12-26T07:48:07.953Z,20.20
2018-12-26T07:50:37.150Z,20.20
2018-12-26T07:53:06.425Z,20.20
2018-12-26T07:55:35.891Z,20.20
2018-12-26T07:58:05.102Z,20.20
2018-12-26T08:00:34.342Z,20.20
2018-12-26T08:03:03.524Z,20.20
2018-12-26T08:05:33.182Z,20.10
2018-12-26T08:08:02.380Z,20.10
2018-12-26T08:10:31.604Z,20.10
2018-12-26T08:13:00.858Z,20.10
2018-12-26T08:15:30.060Z,20.10
2018-12-26T08:17:59.235Z,20.10
2018-12-26T08:20:28.448Z,20.10
2018-12-26T08:22:57.614Z,20.10
2018-12-26T08:25:26.890Z,20.10
2018-12-26T08:27:56.118Z,20.10
2018-12-26T08:30:25.301Z,20.00
2018-12-26T08:32:54.558Z,20.00
2018-12-26T08:35:23.770Z,20.10
2018-12-26T08:37:52.897Z,20.00
2018-12-26T08:40:22.077Z,20.10
2018-12-26T08:42:51.602Z,20.00
2018-12-26T08:45:20.806Z,20.00
2018-12-26T08:47:50.017Z,20.00
2018-12-26T08:50:19.219Z,20.00
2018-12-26T08:52:50.246Z,20.00
2018-12-26T08:55:19.241Z,20.00
2018-12-26T08:57:48.463Z,20.00
2018-12-26T09:00:17.641Z,20.10
2018-12-26T09:02:46.842Z,20.10
2018-12-26T09:05:16.299Z,20.10
2018-12-26T09:07:45.519Z,20.10
2018-12-26T09:10:14.701Z,20.10
2018-12-26T09:12:43.841Z,20.10
2018-12-26T09:15:13.112Z,20.10
2018-12-26T09:17:42.362Z,20.10
2018-12-26T09:20:11.501Z,20.10
2018-12-26T09:22:40.685Z,20.10
2018-12-26T09:25:09.899Z,20.10
2018-12-26T09:27:39.461Z,20.10
2018-12-26T09:30:09.812Z,20.10
2018-12-26T09:32:39.046Z,20.10
2018-12-26T09:35:09.240Z,20.20
2018-12-26T09:37:38.394Z,20.20
2018-12-26T09:40:07.997Z,20.30
2018-12-26T09:42:40.426Z,20.30
2018-12-26T09:45:09.609Z,20.30
2018-12-26T09:47:38.985Z,20.40
2018-12-26T09:50:08.227Z,20.40
2018-12-26T09:52:37.950Z,20.40
2018-12-26T09:55:07.286Z,20.50
2018-12-26T09:57:36.652Z,20.50
2018-12-26T10:00:06.547Z,20.50
2018-12-26T10:02:37.286Z,20.60
2018-12-26T10:05:07.386Z,20.60
2018-12-26T10:07:37.115Z,20.60
2018-12-26T10:10:06.514Z,20.60
2018-12-26T10:12:36.074Z,20.60
2018-12-26T10:15:06.190Z,20.60
2018-12-26T10:17:35.453Z,20.60
2018-12-26T10:20:04.950Z,20.60
2018-12-26T10:22:34.181Z,20.60
2018-12-26T10:25:03.402Z,20.50
2018-12-26T10:27:32.658Z,20.50
2018-12-26T10:30:01.888Z,20.50
2018-12-26T10:32:31.061Z,20.40
2018-12-26T10:35:00.334Z,20.40
2018-12-26T10:37:29.541Z,20.30
2018-12-26T10:39:58.738Z,20.30
2018-12-26T10:42:27.973Z,20.30
2018-12-26T10:44:57.151Z,20.30
2018-12-26T10:47:26.327Z,20.30
2018-12-26T10:49:55.573Z,20.20
2018-12-26T10:52:24.755Z,20.30
2018-12-26T10:54:53.987Z,20.30
2018-12-26T10:57:23.585Z,20.30
2018-12-26T10:59:52.797Z,20.30
2018-12-26T11:02:21.934Z,20.30
2018-12-26T11:04:51.137Z,20.30
2018-12-26T11:07:20.353Z,20.30
2018-12-26T11:09:49.913Z,20.30
2018-12-26T11:12:19.207Z,20.20
2018-12-26T11:14:48.739Z,20.30
2018-12-26T11:17:18.182Z,20.30
2018-12-26T11:19:47.581Z,20.40
2018-12-26T11:22:16.745Z,20.40
2018-12-26T11:24:45.959Z,20.50
2018-12-26T11:27:15.162Z,20.50
2018-12-26T11:29:44.689Z,20.50
2018-12-26T11:32:13.871Z,20.50
2018-12-26T11:34:43.088Z,20.60
2018-12-26T11:37:12.283Z,20.60
2018-12-26T11:39:41.475Z,20.60
2018-12-26T11:42:10.741Z,20.60
2018-12-26T11:44:39.949Z,20.60
2018-12-26T11:47:09.122Z,20.60
2018-12-26T11:49:38.353Z,20.60
2018-12-26T11:52:07.595Z,20.60
2018-12-26T11:54:36.800Z,20.60
2018-12-26T11:57:06.048Z,20.60
2018-12-26T11:59:35.275Z,20.50
2018-12-26T12:02:04.547Z,20.50
2018-12-26T12:04:33.750Z,20.50
2018-12-26T12:07:02.962Z,20.50
2018-12-26T12:09:32.217Z,20.50
2018-12-26T12:12:01.419Z,20.50
2018-12-26T12:14:30.685Z,20.40
2018-12-26T12:16:59.931Z,20.40
2018-12-26T12:19:29.126Z,20.40
2018-12-26T12:21:58.369Z,20.40
2018-12-26T12:24:28.170Z,20.40
2018-12-26T12:26:57.463Z,20.40
2018-12-26T12:29:26.670Z,20.40
2018-12-26T12:31:55.869Z,20.40
2018-12-26T12:34:25.123Z,20.40
2018-12-26T12:36:54.319Z,20.40
2018-12-26T12:39:23.841Z,20.30
2018-12-26T12:41:53.090Z,20.40
2018-12-26T12:44:22.301Z,20.30
2018-12-26T12:46:51.520Z,20.30
2018-12-26T12:49:20.779Z,20.30
2018-12-26T12:51:50.014Z,20.30
2018-12-26T12:54:19.166Z,20.30
2018-12-26T12:56:48.401Z,20.30
2018-12-26T12:59:17.635Z,20.30
2018-12-26T13:01:46.785Z,20.30
2018-12-26T13:04:15.983Z,20.30
2018-12-26T13:06:45.162Z,20.30
2018-12-26T13:09:14.415Z,20.30
2018-12-26T13:11:43.838Z,20.30
2018-12-26T13:14:13.087Z,20.30
2018-12-26T13:16:42.314Z,20.30
2018-12-26T13:19:11.545Z,20.30
2018-12-26T13:21:40.677Z,20.30
2018-12-26T13:24:09.871Z,20.30
2018-12-26T13:26:39.419Z,20.30
2018-12-26T13:29:08.653Z,20.30
2018-12-26T13:31:37.903Z,20.30
2018-12-26T13:34:07.226Z,20.30
2018-12-26T13:36:36.435Z,20.30
2018-12-26T13:39:07.238Z,20.30
2018-12-26T13:41:36.458Z,20.30
2018-12-26T13:44:05.641Z,20.30
2018-12-26T13:46:34.834Z,20.30
2018-12-26T13:49:04.354Z,20.30
2018-12-26T13:51:33.537Z,20.30
2018-12-26T13:54:02.821Z,20.30
2018-12-26T13:56:32.081Z,20.30
2018-12-26T13:59:01.290Z,20.30
2018-12-26T14:01:30.530Z,20.30
2018-12-26T14:03:59.759Z,20.30
2018-12-26T14:06:28.966Z,20.30
2018-12-26T14:08:58.108Z,20.30
2018-12-26T14:11:27.319Z,20.30
2018-12-26T14:13:56.577Z,20.30
2018-12-26T14:16:25.770Z,20.30
2018-12-26T14:18:54.982Z,20.30
2018-12-26T14:21:24.264Z,20.30
2018-12-26T14:23:53.449Z,20.30
2018-12-26T14:26:22.702Z,20.30
2018-12-26T14:28:51.850Z,20.30
2018-12-26T14:31:21.092Z,20.30
2018-12-26T14:33:50.333Z,20.30
2018-12-26T14:36:19.550Z,20.30
2018-12-26T14:38:48.754Z,20.30
2018-12-26T14:41:17.926Z,20.30
2018-12-26T14:43:47.469Z,20.30
2018-12-26T14:46:16.670Z,20.30
2018-12-26T14:48:45.939Z,20.30
2018-12-26T14:51:15.161Z,20.30
2018-12-26T14:53:44.375Z,20.30
2018-12-26T14:56:13.651Z,20.30
2018-12-26T14:58:42.873Z,20.30
2018-12-26T15:01:12.093Z,20.30
2018-12-26T15:03:41.327Z,20.30
2018-12-26T15:06:10.491Z,20.30
2018-12-26T15:08:39.698Z,20.30
2018-12-26T15:11:09.289Z,20.30
2018-12-26T15:13:38.501Z,20.30
2018-12-26T15:16:07.648Z,20.30
2018-12-26T15:18:36.976Z,20.30
2018-12-26T15:21:06.138Z,20.30
2018-12-26T15:23:35.349Z,20.30
2018-12-26T15:26:04.569Z,20.30
2018-12-26T15:28:33.795Z,20.30
2018-12-26T15:31:03.048Z,20.30
2018-12-26T15:33:32.267Z,20.30
2018-12-26T15:36:01.463Z,20.30
2018-12-26T15:38:31.385Z,20.30
2018-12-26T15:41:00.590Z,20.30
2018-12-26T15:43:29.881Z,20.30
2018-12-26T15:45:59.154Z,20.30
2018-12-26T15:48:28.382Z,20.30
2018-12-26T15:50:57.614Z,20.30
2018-12-26T15:53:26.819Z,20.30
2018-12-26T15:55:56.045Z,20.30
2018-12-26T15:58:25.309Z,20.30
2018-12-26T16:00:54.516Z,20.30
2018-12-26T16:03:23.766Z,20.30
2018-12-26T16:05:53.314Z,20.30
2018-12-26T16:08:22.558Z,20.40
2018-12-26T16:10:51.782Z,20.40
2018-12-26T16:13:20.970Z,20.50
2018-12-26T16:15:50.116Z,20.50
2018-12-26T16:18:19.329Z,20.50
2018-12-26T16:20:48.554Z,20.40
2018-12-26T16:23:17.778Z,20.40
2018-12-26T16:25:46.988Z,20.50
2018-12-26T16:28:16.533Z,20.60
2018-12-26T16:30:46.355Z,20.60
2018-12-26T16:33:15.851Z,20.70
2018-12-26T16:35:45.079Z,20.80
2018-12-26T16:38:14.297Z,20.70
2018-12-26T16:40:43.559Z,20.80
2018-12-26T16:43:12.822Z,20.80
2018-12-26T16:45:42.017Z,20.70
2018-12-26T16:48:11.208Z,20.70
2018-12-26T16:50:40.431Z,20.60
2018-12-26T16:53:09.614Z,20.60
2018-12-26T16:55:38.854Z,20.60
2018-12-26T16:58:08.073Z,20.60
2018-12-26T17:00:37.551Z,20.60
2018-12-26T17:03:06.785Z,20.60
2018-12-26T17:05:35.985Z,20.50
2018-12-26T17:08:05.167Z,20.60
2018-12-26T17:10:35.105Z,20.50
2018-12-26T17:13:04.280Z,20.50
2018-12-26T17:15:33.457Z,20.50
2018-12-26T17:18:03.554Z,20.50
2018-12-26T17:20:32.742Z,20.50
2018-12-26T17:23:01.858Z,20.50
2018-12-26T17:25:31.082Z,20.50
2018-12-26T17:28:00.270Z,20.50
2018-12-26T17:30:29.837Z,20.50
2018-12-26T17:33:00.731Z,20.40
2018-12-26T17:35:29.845Z,20.40
2018-12-26T17:37:58.986Z,20.40
2018-12-26T17:40:28.180Z,20.40
2018-12-26T17:42:57.406Z,20.40
2018-12-26T17:45:26.625Z,20.40
2018-12-26T17:47:56.075Z,20.40
2018-12-26T17:50:51.032Z,20.40
2018-12-26T17:54:04.597Z,20.40
2018-12-26T17:57:04.467Z,20.40
2018-12-26T18:00:01.358Z,20.40
2018-12-26T18:02:43.118Z,20.40
2018-12-26T18:05:12.303Z,20.30
2018-12-26T18:07:41.522Z,20.30
2018-12-26T18:10:10.747Z,20.30
2018-12-26T18:12:39.968Z,20.30
2018-12-26T18:15:11.038Z,20.30
2018-12-26T18:17:40.305Z,20.30
2018-12-26T18:20:10.612Z,20.40
2018-12-26T18:22:39.829Z,20.40
2018-12-26T18:25:09.086Z,20.40
2018-12-26T18:27:38.281Z,20.40
2018-12-26T18:30:11.217Z,20.40
2018-12-26T18:32:40.485Z,20.50
2018-12-26T18:35:10.417Z,20.50
2018-12-26T18:37:39.590Z,20.50
2018-12-26T18:40:09.156Z,20.50
2018-12-26T18:42:38.334Z,20.50
2018-12-26T18:45:08.935Z,20.50
2018-12-26T18:47:38.180Z,20.40
2018-12-26T18:50:10.251Z,20.40
2018-12-26T18:52:39.521Z,20.40
2018-12-26T18:55:09.193Z,20.40
2018-12-26T18:57:38.399Z,20.40
2018-12-26T19:00:10.974Z,20.40
2018-12-26T19:02:40.466Z,20.40
2018-12-26T19:05:11.109Z,20.40
2018-12-26T19:07:40.350Z,20.40
2018-12-26T19:10:10.918Z,20.40
2018-12-26T19:12:40.211Z,20.40
2018-12-26T19:15:09.842Z,20.40
2018-12-26T19:17:39.041Z,20.40
2018-12-26T19:20:10.113Z,20.40
2018-12-26T19:22:39.312Z,20.40
2018-12-26T19:25:08.546Z,20.40
2018-12-26T19:27:37.792Z,20.40
2018-12-26T19:30:10.138Z,20.40
2018-12-26T19:32:39.364Z,20.40
2018-12-26T19:35:12.433Z,20.40
2018-12-26T19:37:41.647Z,20.40
2018-12-26T19:40:10.954Z,20.40
2018-12-26T19:42:40.158Z,20.40
2018-12-26T19:45:09.704Z,20.40
2018-12-26T19:47:38.968Z,20.40
2018-12-26T19:50:09.038Z,20.40
2018-12-26T19:52:38.249Z,20.40
2018-12-26T19:55:08.616Z,20.40
2018-12-26T19:57:37.846Z,20.40
2018-12-26T20:00:07.604Z,20.40
2018-12-26T20:02:36.798Z,20.40
2018-12-26T20:05:06.181Z,20.40
2018-12-26T20:07:35.404Z,20.40
2018-12-26T20:10:05.021Z,20.40
2018-12-26T20:12:34.218Z,20.40
2018-12-26T20:15:03.458Z,20.40
2018-12-26T20:17:32.660Z,20.40
2018-12-26T20:20:01.849Z,20.40
2018-12-26T20:22:31.091Z,20.40
2018-12-26T20:25:00.319Z,20.40
2018-12-26T20:27:29.561Z,20.40
2018-12-26T20:29:58.742Z,20.40
2018-12-26T20:32:27.954Z,20.40
2018-12-26T20:34:57.217Z,20.40
2018-12-26T20:37:26.413Z,20.40
2018-12-26T20:39:55.646Z,20.40
2018-12-26T20:42:24.827Z,20.30
2018-12-26T20:44:54.059Z,20.30
2018-12-26T20:47:23.272Z,20.40
2018-12-26T20:49:52.459Z,20.30
2018-12-26T20:52:21.720Z,20.30
2018-12-26T20:54:50.912Z,20.40
2018-12-26T20:57:20.190Z,20.40
2018-12-26T20:59:49.414Z,20.40
2018-12-26T21:02:18.630Z,20.40
2018-12-26T21:04:47.841Z,20.40
2018-12-26T21:07:17.034Z,20.50
2018-12-26T21:09:46.255Z,20.50
2018-12-26T21:12:15.509Z,20.50
2018-12-26T21:14:44.702Z,20.50
2018-12-26T21:17:13.911Z,20.50
2018-12-26T21:19:43.157Z,20.60
2018-12-26T21:22:12.339Z,20.60
2018-12-26T21:24:41.571Z,20.60
2018-12-26T21:27:10.832Z,20.70
2018-12-26T21:29:45.169Z,20.70
2018-12-26T21:32:14.519Z,20.70
2018-12-26T21:34:43.866Z,20.70
2018-12-26T21:37:13.584Z,20.70
2018-12-26T21:39:42.973Z,20.70
2018-12-26T21:42:12.731Z,20.70
2018-12-26T21:44:41.951Z,20.60
2018-12-26T21:47:11.276Z,20.60
2018-12-26T21:49:40.501Z,20.60
2018-12-26T21:52:13.026Z,20.60
2018-12-26T21:54:42.272Z,20.60
2018-12-26T21:57:11.463Z,20.60
2018-12-26T21:59:40.742Z,20.60
2018-12-26T22:02:09.993Z,20.60
2018-12-26T22:04:39.194Z,20.60
2018-12-26T22:07:08.430Z,20.50
2018-12-26T22:09:37.718Z,20.50
2018-12-26T22:12:06.933Z,20.50
2018-12-26T22:14:36.217Z,20.50
2018-12-26T22:17:05.707Z,20.50
2018-12-26T22:19:35.013Z,20.50
2018-12-26T22:22:04.279Z,20.40
2018-12-26T22:24:33.707Z,20.40
2018-12-26T22:27:02.961Z,20.40
2018-12-26T22:29:32.460Z,20.40
2018-12-26T22:32:01.779Z,20.50
2018-12-26T22:34:31.109Z,20.40
2018-12-26T22:37:00.308Z,20.40
2018-12-26T22:39:29.597Z,20.50
2018-12-26T22:41:58.841Z,20.50
2018-12-26T22:44:28.121Z,20.50
2018-12-26T22:46:59.525Z,20.50
2018-12-26T22:49:29.217Z,20.50
2018-12-26T22:52:01.313Z,20.50
2018-12-26T22:54:32.959Z,20.50
2018-12-26T22:57:02.207Z,20.50
2018-12-26T22:59:31.577Z,20.50
2018-12-26T23:02:01.129Z,20.50
2018-12-26T23:04:30.367Z,20.50
2018-12-26T23:06:59.721Z,20.50
2018-12-26T23:09:28.970Z,20.50
2018-12-26T23:11:58.274Z,20.50
2018-12-26T23:14:27.506Z,20.50
2018-12-26T23:16:56.992Z,20.50
2018-12-26T23:19:26.291Z,20.50
2018-12-26T23:21:55.530Z,20.50
2018-12-26T23:24:25.143Z,20.50
2018-12-26T23:26:54.377Z,20.50
2018-12-26T23:29:23.623Z,20.50
2018-12-26T23:31:54.871Z,20.50
2018-12-26T23:34:24.242Z,20.50
2018-12-26T23:36:53.475Z,20.50
2018-12-26T23:39:22.714Z,20.50
2018-12-26T23:41:51.981Z,20.50
2018-12-26T23:44:21.185Z,20.50
2018-12-26T23:46:50.498Z,20.50
2018-12-26T23:49:19.719Z,20.50
2018-12-26T23:51:49.001Z,20.50
2018-12-26T23:54:18.238Z,20.50
2018-12-26T23:56:47.421Z,20.50
2018-12-26T23:59:16.688Z,20.50
